sensor_id;sensor_type;location;lat;lon;timestamp;P1;durP1;ratioP1;P2;durP2;ratioP2
17177;SDS011;8704;52.006;4.374;2023-08-06T00:01:17;13.75;;;11.40;;
17177;SDS011;8704;52.006;4.374;2023-08-06T00:03:49;12.90;;;11.60;;
17177;SDS011;8704;52.006;4.374;2023-08-06T00:06:17;13.85;;;12.48;;
17177;SDS011;8704;52.006;4.374;2023-08-06T00:08:45;14.25;;;12.48;;
17177;SDS011;8704;52.006;4.374;2023-08-06T00:11:13;13.18;;;11.55;;
17177;SDS011;8704;52.006;4.374;2023-08-06T00:13:42;15.50;;;12.75;;
17177;SDS011;8704;52.006;4.374;2023-08-06T00:16:10;14.60;;;13.20;;
17177;SDS011;8704;52.006;4.374;2023-08-06T00:18:39;14.85;;;13.35;;
17177;SDS011;8704;52.006;4.374;2023-08-06T00:21:08;15.10;;;13.63;;
17177;SDS011;8704;52.006;4.374;2023-08-06T00:23:38;15.82;;;14.27;;
17177;SDS011;8704;52.006;4.374;2023-08-06T00:26:07;16.63;;;13.95;;
17177;SDS011;8704;52.006;4.374;2023-08-06T00:28:35;15.50;;;13.65;;
17177;SDS011;8704;52.006;4.374;2023-08-06T00:31:03;15.05;;;13.65;;
17177;SDS011;8704;52.006;4.374;2023-08-06T00:33:31;14.75;;;13.35;;
17177;SDS011;8704;52.006;4.374;2023-08-06T00:35:59;15.13;;;13.75;;
17177;SDS011;8704;52.006;4.374;2023-08-06T00:38:29;15.25;;;13.85;;
17177;SDS011;8704;52.006;4.374;2023-08-06T00:40:57;19.13;;;15.70;;
17177;SDS011;8704;52.006;4.374;2023-08-06T00:43:25;16.48;;;14.18;;
17177;SDS011;8704;52.006;4.374;2023-08-06T00:45:53;18.50;;;15.07;;
17177;SDS011;8704;52.006;4.374;2023-08-06T00:48:22;16.10;;;14.50;;
17177;SDS011;8704;52.006;4.374;2023-08-06T00:50:50;14.93;;;13.40;;
17177;SDS011;8704;52.006;4.374;2023-08-06T00:53:18;14.82;;;13.43;;
17177;SDS011;8704;52.006;4.374;2023-08-06T00:55:48;14.68;;;13.13;;
17177;SDS011;8704;52.006;4.374;2023-08-06T00:58:16;13.90;;;12.60;;
17177;SDS011;8704;52.006;4.374;2023-08-06T01:00:44;16.17;;;14.50;;
17177;SDS011;8704;52.006;4.374;2023-08-06T01:03:13;16.58;;;14.88;;
17177;SDS011;8704;52.006;4.374;2023-08-06T01:05:42;15.88;;;14.27;;
17177;SDS011;8704;52.006;4.374;2023-08-06T01:08:16;16.13;;;14.50;;
17177;SDS011;8704;52.006;4.374;2023-08-06T01:11:00;16.92;;;15.23;;
17177;SDS011;8704;52.006;4.374;2023-08-06T01:13:37;15.35;;;13.75;;
17177;SDS011;8704;52.006;4.374;2023-08-06T01:16:10;19.38;;;14.10;;
17177;SDS011;8704;52.006;4.374;2023-08-06T01:18:39;15.43;;;13.93;;
17177;SDS011;8704;52.006;4.374;2023-08-06T01:21:09;15.35;;;13.85;;
17177;SDS011;8704;52.006;4.374;2023-08-06T01:23:37;16.13;;;14.63;;
17177;SDS011;8704;52.006;4.374;2023-08-06T01:26:08;18.75;;;14.85;;
17177;SDS011;8704;52.006;4.374;2023-08-06T01:28:44;16.52;;;14.95;;
17177;SDS011;8704;52.006;4.374;2023-08-06T01:31:18;17.30;;;15.60;;
17177;SDS011;8704;52.006;4.374;2023-08-06T01:33:49;15.40;;;13.90;;
17177;SDS011;8704;52.006;4.374;2023-08-06T01:36:21;16.38;;;14.75;;
17177;SDS011;8704;52.006;4.374;2023-08-06T01:38:50;15.45;;;13.85;;
17177;SDS011;8704;52.006;4.374;2023-08-06T01:41:20;15.18;;;13.63;;
17177;SDS011;8704;52.006;4.374;2023-08-06T01:43:48;14.98;;;12.82;;
17177;SDS011;8704;52.006;4.374;2023-08-06T01:46:16;15.02;;;13.25;;
17177;SDS011;8704;52.006;4.374;2023-08-06T01:48:45;13.85;;;12.65;;
17177;SDS011;8704;52.006;4.374;2023-08-06T01:51:13;13.70;;;12.40;;
17177;SDS011;8704;52.006;4.374;2023-08-06T01:53:42;13.20;;;11.93;;
17177;SDS011;8704;52.006;4.374;2023-08-06T01:56:10;13.32;;;12.13;;
17177;SDS011;8704;52.006;4.374;2023-08-06T01:58:38;13.05;;;11.75;;
17177;SDS011;8704;52.006;4.374;2023-08-06T02:01:06;16.40;;;13.90;;
17177;SDS011;8704;52.006;4.374;2023-08-06T02:03:34;15.88;;;14.18;;
17177;SDS011;8704;52.006;4.374;2023-08-06T02:06:03;21.20;;;15.38;;
17177;SDS011;8704;52.006;4.374;2023-08-06T02:08:31;14.43;;;13.05;;
17177;SDS011;8704;52.006;4.374;2023-08-06T02:11:00;15.05;;;13.55;;
17177;SDS011;8704;52.006;4.374;2023-08-06T02:13:29;14.02;;;12.73;;
17177;SDS011;8704;52.006;4.374;2023-08-06T02:15:57;13.27;;;11.95;;
17177;SDS011;8704;52.006;4.374;2023-08-06T02:18:25;13.30;;;11.60;;
17177;SDS011;8704;52.006;4.374;2023-08-06T02:20:56;13.13;;;11.35;;
17177;SDS011;8704;52.006;4.374;2023-08-06T02:23:24;9.48;;;8.48;;
17177;SDS011;8704;52.006;4.374;2023-08-06T02:25:57;9.10;;;8.15;;
17177;SDS011;8704;52.006;4.374;2023-08-06T02:28:27;8.65;;;7.78;;
17177;SDS011;8704;52.006;4.374;2023-08-06T02:30:55;5.57;;;4.38;;
17177;SDS011;8704;52.006;4.374;2023-08-06T02:33:23;6.38;;;4.28;;
17177;SDS011;8704;52.006;4.374;2023-08-06T02:35:58;6.20;;;4.20;;
17177;SDS011;8704;52.006;4.374;2023-08-06T02:38:27;4.05;;;3.65;;
17177;SDS011;8704;52.006;4.374;2023-08-06T02:40:55;6.60;;;3.53;;
17177;SDS011;8704;52.006;4.374;2023-08-06T02:43:23;4.25;;;3.30;;
17177;SDS011;8704;52.006;4.374;2023-08-06T02:45:56;3.08;;;2.75;;
17177;SDS011;8704;52.006;4.374;2023-08-06T02:48:25;4.00;;;3.10;;
17177;SDS011;8704;52.006;4.374;2023-08-06T02:50:53;5.55;;;3.30;;
17177;SDS011;8704;52.006;4.374;2023-08-06T02:53:24;6.85;;;3.33;;
17177;SDS011;8704;52.006;4.374;2023-08-06T02:55:53;3.65;;;2.60;;
17177;SDS011;8704;52.006;4.374;2023-08-06T02:58:21;5.38;;;2.55;;
17177;SDS011;8704;52.006;4.374;2023-08-06T03:01:01;2.20;;;2.00;;
17177;SDS011;8704;52.006;4.374;2023-08-06T03:03:30;2.80;;;2.08;;
17177;SDS011;8704;52.006;4.374;2023-08-06T03:05:58;6.88;;;3.10;;
17177;SDS011;8704;52.006;4.374;2023-08-06T03:08:26;6.22;;;3.60;;
17177;SDS011;8704;52.006;4.374;2023-08-06T03:10:55;5.85;;;4.50;;
17177;SDS011;8704;52.006;4.374;2023-08-06T03:13:23;7.47;;;5.18;;
17177;SDS011;8704;52.006;4.374;2023-08-06T03:15:52;7.13;;;5.50;;
17177;SDS011;8704;52.006;4.374;2023-08-06T03:18:22;10.55;;;6.57;;
17177;SDS011;8704;52.006;4.374;2023-08-06T03:20:52;7.38;;;6.50;;
17177;SDS011;8704;52.006;4.374;2023-08-06T03:23:20;11.95;;;8.38;;
17177;SDS011;8704;52.006;4.374;2023-08-06T03:25:48;15.77;;;9.07;;
17177;SDS011;8704;52.006;4.374;2023-08-06T03:28:16;10.02;;;9.00;;
17177;SDS011;8704;52.006;4.374;2023-08-06T03:30:45;12.27;;;9.70;;
17177;SDS011;8704;52.006;4.374;2023-08-06T03:33:13;10.73;;;9.63;;
17177;SDS011;8704;52.006;4.374;2023-08-06T03:35:42;5.55;;;4.70;;
17177;SDS011;8704;52.006;4.374;2023-08-06T03:38:11;8.80;;;4.68;;
17177;SDS011;8704;52.006;4.374;2023-08-06T03:40:39;8.35;;;4.72;;
17177;SDS011;8704;52.006;4.374;2023-08-06T03:43:07;8.15;;;3.70;;
17177;SDS011;8704;52.006;4.374;2023-08-06T03:45:35;7.53;;;3.78;;
17177;SDS011;8704;52.006;4.374;2023-08-06T03:48:03;10.82;;;3.88;;
17177;SDS011;8704;52.006;4.374;2023-08-06T03:50:31;7.07;;;3.58;;
17177;SDS011;8704;52.006;4.374;2023-08-06T03:53:01;7.65;;;3.60;;
17177;SDS011;8704;52.006;4.374;2023-08-06T03:55:29;8.38;;;4.00;;
17177;SDS011;8704;52.006;4.374;2023-08-06T03:57:57;6.82;;;4.13;;
17177;SDS011;8704;52.006;4.374;2023-08-06T04:00:25;10.60;;;4.97;;
17177;SDS011;8704;52.006;4.374;2023-08-06T04:02:53;6.70;;;4.32;;
17177;SDS011;8704;52.006;4.374;2023-08-06T04:05:22;7.35;;;3.88;;
17177;SDS011;8704;52.006;4.374;2023-08-06T04:07:50;7.60;;;3.80;;
17177;SDS011;8704;52.006;4.374;2023-08-06T04:10:19;6.35;;;3.65;;
17177;SDS011;8704;52.006;4.374;2023-08-06T04:12:47;8.60;;;4.10;;
17177;SDS011;8704;52.006;4.374;2023-08-06T04:15:15;8.60;;;4.35;;
17177;SDS011;8704;52.006;4.374;2023-08-06T04:17:44;6.88;;;4.30;;
17177;SDS011;8704;52.006;4.374;2023-08-06T04:20:12;9.23;;;4.22;;
17177;SDS011;8704;52.006;4.374;2023-08-06T04:22:40;9.30;;;4.50;;
17177;SDS011;8704;52.006;4.374;2023-08-06T04:25:08;9.00;;;5.03;;
17177;SDS011;8704;52.006;4.374;2023-08-06T04:27:38;8.63;;;5.00;;
17177;SDS011;8704;52.006;4.374;2023-08-06T04:30:08;6.53;;;4.68;;
17177;SDS011;8704;52.006;4.374;2023-08-06T04:32:38;8.88;;;4.63;;
17177;SDS011;8704;52.006;4.374;2023-08-06T04:35:07;11.02;;;5.00;;
17177;SDS011;8704;52.006;4.374;2023-08-06T04:37:35;6.53;;;4.00;;
17177;SDS011;8704;52.006;4.374;2023-08-06T04:40:03;7.18;;;4.68;;
17177;SDS011;8704;52.006;4.374;2023-08-06T04:42:32;7.72;;;4.80;;
17177;SDS011;8704;52.006;4.374;2023-08-06T04:45:02;12.27;;;5.30;;
17177;SDS011;8704;52.006;4.374;2023-08-06T04:47:30;6.85;;;5.00;;
17177;SDS011;8704;52.006;4.374;2023-08-06T04:49:58;6.72;;;5.07;;
17177;SDS011;8704;52.006;4.374;2023-08-06T04:52:27;11.43;;;5.57;;
17177;SDS011;8704;52.006;4.374;2023-08-06T04:54:55;8.52;;;5.35;;
17177;SDS011;8704;52.006;4.374;2023-08-06T04:57:23;10.40;;;5.53;;
17177;SDS011;8704;52.006;4.374;2023-08-06T04:59:52;8.90;;;6.18;;
17177;SDS011;8704;52.006;4.374;2023-08-06T05:02:21;11.68;;;6.13;;
17177;SDS011;8704;52.006;4.374;2023-08-06T05:04:49;9.32;;;6.40;;
17177;SDS011;8704;52.006;4.374;2023-08-06T05:07:17;10.95;;;5.93;;
17177;SDS011;8704;52.006;4.374;2023-08-06T05:09:45;10.73;;;5.97;;
17177;SDS011;8704;52.006;4.374;2023-08-06T05:12:14;10.45;;;6.82;;
17177;SDS011;8704;52.006;4.374;2023-08-06T05:14:42;12.82;;;7.38;;
17177;SDS011;8704;52.006;4.374;2023-08-06T05:17:10;12.02;;;6.75;;
17177;SDS011;8704;52.006;4.374;2023-08-06T05:19:39;11.35;;;6.78;;
17177;SDS011;8704;52.006;4.374;2023-08-06T05:22:07;12.63;;;5.85;;
17177;SDS011;8704;52.006;4.374;2023-08-06T05:24:35;9.73;;;5.47;;
17177;SDS011;8704;52.006;4.374;2023-08-06T05:27:04;12.23;;;4.53;;
17177;SDS011;8704;52.006;4.374;2023-08-06T05:29:31;7.75;;;3.35;;
17177;SDS011;8704;52.006;4.374;2023-08-06T05:31:59;8.88;;;3.78;;
17177;SDS011;8704;52.006;4.374;2023-08-06T05:34:28;7.97;;;3.10;;
17177;SDS011;8704;52.006;4.374;2023-08-06T05:36:57;8.77;;;3.55;;
17177;SDS011;8704;52.006;4.374;2023-08-06T05:39:25;5.45;;;2.80;;
17177;SDS011;8704;52.006;4.374;2023-08-06T05:41:53;7.30;;;2.50;;
17177;SDS011;8704;52.006;4.374;2023-08-06T05:44:22;8.02;;;2.78;;
17177;SDS011;8704;52.006;4.374;2023-08-06T05:46:50;3.92;;;1.92;;
17177;SDS011;8704;52.006;4.374;2023-08-06T05:49:19;5.85;;;2.10;;
17177;SDS011;8704;52.006;4.374;2023-08-06T05:51:47;8.75;;;2.17;;
17177;SDS011;8704;52.006;4.374;2023-08-06T05:54:18;6.47;;;2.40;;
17177;SDS011;8704;52.006;4.374;2023-08-06T05:56:46;5.25;;;2.33;;
17177;SDS011;8704;52.006;4.374;2023-08-06T05:59:14;6.65;;;2.20;;
17177;SDS011;8704;52.006;4.374;2023-08-06T06:01:42;6.47;;;2.33;;
17177;SDS011;8704;52.006;4.374;2023-08-06T06:04:10;5.03;;;1.63;;
17177;SDS011;8704;52.006;4.374;2023-08-06T06:06:38;6.15;;;1.92;;
17177;SDS011;8704;52.006;4.374;2023-08-06T06:09:08;4.00;;;1.85;;
17177;SDS011;8704;52.006;4.374;2023-08-06T06:11:37;5.85;;;2.10;;
17177;SDS011;8704;52.006;4.374;2023-08-06T06:14:05;4.72;;;1.90;;
17177;SDS011;8704;52.006;4.374;2023-08-06T06:16:33;5.57;;;2.30;;
17177;SDS011;8704;52.006;4.374;2023-08-06T06:19:02;4.80;;;1.98;;
17177;SDS011;8704;52.006;4.374;2023-08-06T06:21:30;5.57;;;2.15;;
17177;SDS011;8704;52.006;4.374;2023-08-06T06:23:58;9.43;;;2.20;;
17177;SDS011;8704;52.006;4.374;2023-08-06T06:26:26;5.35;;;2.22;;
17177;SDS011;8704;52.006;4.374;2023-08-06T06:28:56;5.30;;;2.10;;
17177;SDS011;8704;52.006;4.374;2023-08-06T06:31:24;6.15;;;2.20;;
17177;SDS011;8704;52.006;4.374;2023-08-06T06:33:52;5.50;;;2.10;;
17177;SDS011;8704;52.006;4.374;2023-08-06T06:36:20;6.60;;;2.15;;
17177;SDS011;8704;52.006;4.374;2023-08-06T06:38:50;4.88;;;2.10;;
17177;SDS011;8704;52.006;4.374;2023-08-06T06:41:18;7.40;;;2.45;;
17177;SDS011;8704;52.006;4.374;2023-08-06T06:43:46;6.53;;;2.83;;
17177;SDS011;8704;52.006;4.374;2023-08-06T06:46:15;7.50;;;2.30;;
17177;SDS011;8704;52.006;4.374;2023-08-06T06:48:43;9.23;;;3.05;;
17177;SDS011;8704;52.006;4.374;2023-08-06T06:51:12;5.97;;;2.50;;
17177;SDS011;8704;52.006;4.374;2023-08-06T06:53:40;8.38;;;3.28;;
17177;SDS011;8704;52.006;4.374;2023-08-06T06:56:08;5.10;;;2.92;;
17177;SDS011;8704;52.006;4.374;2023-08-06T06:58:36;5.75;;;3.15;;
17177;SDS011;8704;52.006;4.374;2023-08-06T07:01:05;7.88;;;2.92;;
17177;SDS011;8704;52.006;4.374;2023-08-06T07:03:34;6.65;;;2.88;;
17177;SDS011;8704;52.006;4.374;2023-08-06T07:06:02;6.63;;;2.60;;
17177;SDS011;8704;52.006;4.374;2023-08-06T07:08:32;4.78;;;2.55;;
17177;SDS011;8704;52.006;4.374;2023-08-06T07:11:00;6.80;;;2.50;;
17177;SDS011;8704;52.006;4.374;2023-08-06T07:13:30;9.32;;;2.72;;
17177;SDS011;8704;52.006;4.374;2023-08-06T07:15:58;6.35;;;3.25;;
17177;SDS011;8704;52.006;4.374;2023-08-06T07:18:26;5.75;;;2.72;;
17177;SDS011;8704;52.006;4.374;2023-08-06T07:20:56;8.20;;;3.03;;
17177;SDS011;8704;52.006;4.374;2023-08-06T07:23:31;7.20;;;2.65;;
17177;SDS011;8704;52.006;4.374;2023-08-06T07:25:59;10.25;;;2.88;;
17177;SDS011;8704;52.006;4.374;2023-08-06T07:28:27;7.85;;;2.47;;
17177;SDS011;8704;52.006;4.374;2023-08-06T07:30:55;5.53;;;2.22;;
17177;SDS011;8704;52.006;4.374;2023-08-06T07:33:23;4.75;;;2.35;;
17177;SDS011;8704;52.006;4.374;2023-08-06T07:35:51;7.30;;;2.42;;
17177;SDS011;8704;52.006;4.374;2023-08-06T07:38:21;6.53;;;2.70;;
17177;SDS011;8704;52.006;4.374;2023-08-06T07:40:49;5.07;;;2.40;;
17177;SDS011;8704;52.006;4.374;2023-08-06T07:43:17;6.85;;;3.05;;
17177;SDS011;8704;52.006;4.374;2023-08-06T07:45:45;7.07;;;3.00;;
17177;SDS011;8704;52.006;4.374;2023-08-06T07:48:13;4.97;;;2.20;;
17177;SDS011;8704;52.006;4.374;2023-08-06T07:50:41;5.57;;;2.25;;
17177;SDS011;8704;52.006;4.374;2023-08-06T07:53:11;7.72;;;2.72;;
17177;SDS011;8704;52.006;4.374;2023-08-06T07:55:40;4.97;;;2.30;;
17177;SDS011;8704;52.006;4.374;2023-08-06T07:58:11;6.15;;;2.45;;
17177;SDS011;8704;52.006;4.374;2023-08-06T08:00:40;3.92;;;2.22;;
17177;SDS011;8704;52.006;4.374;2023-08-06T08:03:11;5.53;;;2.53;;
17177;SDS011;8704;52.006;4.374;2023-08-06T08:05:40;4.35;;;2.28;;
17177;SDS011;8704;52.006;4.374;2023-08-06T08:08:09;5.30;;;2.28;;
17177;SDS011;8704;52.006;4.374;2023-08-06T08:10:37;5.65;;;2.35;;
17177;SDS011;8704;52.006;4.374;2023-08-06T08:13:07;5.75;;;2.10;;
17177;SDS011;8704;52.006;4.374;2023-08-06T08:15:36;4.82;;;2.45;;
17177;SDS011;8704;52.006;4.374;2023-08-06T08:18:04;4.72;;;2.38;;
17177;SDS011;8704;52.006;4.374;2023-08-06T08:20:32;7.57;;;2.45;;
17177;SDS011;8704;52.006;4.374;2023-08-06T08:23:02;4.97;;;2.35;;
17177;SDS011;8704;52.006;4.374;2023-08-06T08:25:30;4.53;;;2.30;;
17177;SDS011;8704;52.006;4.374;2023-08-06T08:28:00;5.88;;;2.42;;
17177;SDS011;8704;52.006;4.374;2023-08-06T08:30:29;6.72;;;2.45;;
17177;SDS011;8704;52.006;4.374;2023-08-06T08:32:57;6.80;;;2.30;;
17177;SDS011;8704;52.006;4.374;2023-08-06T08:35:26;6.50;;;2.15;;
17177;SDS011;8704;52.006;4.374;2023-08-06T08:37:54;7.25;;;2.42;;
17177;SDS011;8704;52.006;4.374;2023-08-06T08:40:22;4.75;;;1.92;;
17177;SDS011;8704;52.006;4.374;2023-08-06T08:42:59;5.85;;;2.08;;
17177;SDS011;8704;52.006;4.374;2023-08-06T08:45:28;4.97;;;2.00;;
17177;SDS011;8704;52.006;4.374;2023-08-06T08:48:01;5.78;;;2.00;;
17177;SDS011;8704;52.006;4.374;2023-08-06T08:50:30;4.78;;;2.13;;
17177;SDS011;8704;52.006;4.374;2023-08-06T08:52:58;3.58;;;1.77;;
17177;SDS011;8704;52.006;4.374;2023-08-06T08:55:27;9.75;;;2.28;;
17177;SDS011;8704;52.006;4.374;2023-08-06T08:57:56;3.83;;;2.05;;
17177;SDS011;8704;52.006;4.374;2023-08-06T09:00:24;3.45;;;1.90;;
17177;SDS011;8704;52.006;4.374;2023-08-06T09:02:54;3.63;;;1.90;;
17177;SDS011;8704;52.006;4.374;2023-08-06T09:05:23;3.70;;;1.80;;
17177;SDS011;8704;52.006;4.374;2023-08-06T09:07:53;4.55;;;1.38;;
17177;SDS011;8704;52.006;4.374;2023-08-06T09:10:23;5.78;;;2.10;;
17177;SDS011;8704;52.006;4.374;2023-08-06T09:12:51;6.00;;;2.20;;
17177;SDS011;8704;52.006;4.374;2023-08-06T09:15:20;5.57;;;1.63;;
17177;SDS011;8704;52.006;4.374;2023-08-06T09:17:51;5.55;;;2.15;;
17177;SDS011;8704;52.006;4.374;2023-08-06T09:20:21;3.78;;;1.58;;
17177;SDS011;8704;52.006;4.374;2023-08-06T09:22:49;4.53;;;1.60;;
17177;SDS011;8704;52.006;4.374;2023-08-06T09:25:20;2.95;;;1.77;;
17177;SDS011;8704;52.006;4.374;2023-08-06T09:27:51;3.95;;;1.80;;
17177;SDS011;8704;52.006;4.374;2023-08-06T09:30:28;11.23;;;2.13;;
17177;SDS011;8704;52.006;4.374;2023-08-06T09:32:59;6.95;;;1.60;;
17177;SDS011;8704;52.006;4.374;2023-08-06T09:35:28;4.68;;;2.08;;
17177;SDS011;8704;52.006;4.374;2023-08-06T09:38:03;4.65;;;2.10;;
17177;SDS011;8704;52.006;4.374;2023-08-06T09:40:34;5.03;;;1.90;;
17177;SDS011;8704;52.006;4.374;2023-08-06T09:43:02;3.20;;;1.38;;
17177;SDS011;8704;52.006;4.374;2023-08-06T09:45:32;3.15;;;1.58;;
17177;SDS011;8704;52.006;4.374;2023-08-06T09:48:04;4.07;;;1.80;;
17177;SDS011;8704;52.006;4.374;2023-08-06T09:50:33;3.08;;;1.58;;
17177;SDS011;8704;52.006;4.374;2023-08-06T09:53:03;5.40;;;1.70;;
17177;SDS011;8704;52.006;4.374;2023-08-06T09:55:32;4.68;;;1.52;;
17177;SDS011;8704;52.006;4.374;2023-08-06T09:58:01;3.63;;;1.80;;
17177;SDS011;8704;52.006;4.374;2023-08-06T10:00:31;3.83;;;1.80;;
17177;SDS011;8704;52.006;4.374;2023-08-06T10:03:06;5.40;;;2.25;;
17177;SDS011;8704;52.006;4.374;2023-08-06T10:05:37;3.78;;;2.08;;
17177;SDS011;8704;52.006;4.374;2023-08-06T10:08:06;3.05;;;1.55;;
17177;SDS011;8704;52.006;4.374;2023-08-06T10:10:34;4.25;;;1.60;;
17177;SDS011;8704;52.006;4.374;2023-08-06T10:13:03;4.18;;;1.40;;
17177;SDS011;8704;52.006;4.374;2023-08-06T10:15:34;3.13;;;1.40;;
17177;SDS011;8704;52.006;4.374;2023-08-06T10:18:02;5.65;;;1.40;;
17177;SDS011;8704;52.006;4.374;2023-08-06T10:20:34;3.65;;;1.70;;
17177;SDS011;8704;52.006;4.374;2023-08-06T10:23:02;4.65;;;1.70;;
17177;SDS011;8704;52.006;4.374;2023-08-06T10:25:32;3.53;;;1.90;;
17177;SDS011;8704;52.006;4.374;2023-08-06T10:28:01;6.43;;;1.58;;
17177;SDS011;8704;52.006;4.374;2023-08-06T10:30:45;4.32;;;1.75;;
17177;SDS011;8704;52.006;4.374;2023-08-06T10:33:14;3.67;;;1.60;;
17177;SDS011;8704;52.006;4.374;2023-08-06T10:35:45;4.45;;;1.55;;
17177;SDS011;8704;52.006;4.374;2023-08-06T10:38:15;4.00;;;1.70;;
17177;SDS011;8704;52.006;4.374;2023-08-06T10:40:48;3.47;;;1.50;;
17177;SDS011;8704;52.006;4.374;2023-08-06T10:43:27;4.38;;;1.45;;
17177;SDS011;8704;52.006;4.374;2023-08-06T10:45:56;3.92;;;1.48;;
17177;SDS011;8704;52.006;4.374;2023-08-06T10:48:29;3.08;;;1.50;;
17177;SDS011;8704;52.006;4.374;2023-08-06T10:51:00;4.00;;;1.60;;
17177;SDS011;8704;52.006;4.374;2023-08-06T10:53:28;5.72;;;1.38;;
17177;SDS011;8704;52.006;4.374;2023-08-06T10:56:00;4.60;;;1.60;;
17177;SDS011;8704;52.006;4.374;2023-08-06T10:58:31;7.22;;;1.35;;
17177;SDS011;8704;52.006;4.374;2023-08-06T11:01:00;2.45;;;1.45;;
17177;SDS011;8704;52.006;4.374;2023-08-06T11:03:28;5.90;;;1.80;;
17177;SDS011;8704;52.006;4.374;2023-08-06T11:05:56;5.57;;;1.77;;
17177;SDS011;8704;52.006;4.374;2023-08-06T11:08:26;4.93;;;1.35;;
17177;SDS011;8704;52.006;4.374;2023-08-06T11:10:55;7.35;;;1.92;;
17177;SDS011;8704;52.006;4.374;2023-08-06T11:13:35;5.25;;;1.70;;
17177;SDS011;8704;52.006;4.374;2023-08-06T11:16:03;4.45;;;1.63;;
17177;SDS011;8704;52.006;4.374;2023-08-06T11:18:32;5.10;;;2.22;;
17177;SDS011;8704;52.006;4.374;2023-08-06T11:21:02;5.40;;;1.60;;
17177;SDS011;8704;52.006;4.374;2023-08-06T11:23:30;6.38;;;1.60;;
17177;SDS011;8704;52.006;4.374;2023-08-06T11:25:58;3.50;;;1.48;;
17177;SDS011;8704;52.006;4.374;2023-08-06T11:28:26;4.60;;;1.58;;
17177;SDS011;8704;52.006;4.374;2023-08-06T11:30:55;4.10;;;1.60;;
17177;SDS011;8704;52.006;4.374;2023-08-06T11:33:29;3.35;;;1.58;;
17177;SDS011;8704;52.006;4.374;2023-08-06T11:35:58;6.15;;;2.15;;
17177;SDS011;8704;52.006;4.374;2023-08-06T11:38:28;6.50;;;1.90;;
17177;SDS011;8704;52.006;4.374;2023-08-06T11:40:56;4.35;;;2.00;;
17177;SDS011;8704;52.006;4.374;2023-08-06T11:43:24;4.90;;;1.85;;
17177;SDS011;8704;52.006;4.374;2023-08-06T11:45:54;4.47;;;1.80;;
17177;SDS011;8704;52.006;4.374;2023-08-06T11:48:23;5.90;;;1.65;;
17177;SDS011;8704;52.006;4.374;2023-08-06T11:50:53;5.03;;;1.77;;
17177;SDS011;8704;52.006;4.374;2023-08-06T11:53:26;4.57;;;1.60;;
17177;SDS011;8704;52.006;4.374;2023-08-06T11:55:56;2.75;;;1.30;;
17177;SDS011;8704;52.006;4.374;2023-08-06T11:58:25;3.13;;;1.33;;
17177;SDS011;8704;52.006;4.374;2023-08-06T12:00:53;4.53;;;1.20;;
17177;SDS011;8704;52.006;4.374;2023-08-06T12:03:22;2.20;;;1.02;;
17177;SDS011;8704;52.006;4.374;2023-08-06T12:05:53;2.25;;;1.20;;
17177;SDS011;8704;52.006;4.374;2023-08-06T12:08:25;2.30;;;1.00;;
17177;SDS011;8704;52.006;4.374;2023-08-06T12:10:57;7.00;;;1.50;;
17177;SDS011;8704;52.006;4.374;2023-08-06T12:13:25;5.55;;;1.33;;
17177;SDS011;8704;52.006;4.374;2023-08-06T12:15:53;4.97;;;1.20;;
17177;SDS011;8704;52.006;4.374;2023-08-06T12:18:23;5.28;;;1.33;;
17177;SDS011;8704;52.006;4.374;2023-08-06T12:20:51;4.85;;;1.20;;
17177;SDS011;8704;52.006;4.374;2023-08-06T12:23:20;6.25;;;1.38;;
17177;SDS011;8704;52.006;4.374;2023-08-06T12:25:48;4.22;;;1.33;;
17177;SDS011;8704;52.006;4.374;2023-08-06T12:28:18;3.50;;;1.23;;
17177;SDS011;8704;52.006;4.374;2023-08-06T12:30:49;7.13;;;1.52;;
17177;SDS011;8704;52.006;4.374;2023-08-06T12:33:21;3.88;;;1.05;;
17177;SDS011;8704;52.006;4.374;2023-08-06T12:35:49;4.32;;;1.40;;
17177;SDS011;8704;52.006;4.374;2023-08-06T12:38:19;3.65;;;1.08;;
17177;SDS011;8704;52.006;4.374;2023-08-06T12:40:47;3.13;;;0.80;;
17177;SDS011;8704;52.006;4.374;2023-08-06T12:43:17;3.38;;;1.08;;
17177;SDS011;8704;52.006;4.374;2023-08-06T12:45:45;6.95;;;1.05;;
17177;SDS011;8704;52.006;4.374;2023-08-06T12:48:17;3.08;;;0.75;;
17177;SDS011;8704;52.006;4.374;2023-08-06T12:50:45;2.85;;;0.95;;
17177;SDS011;8704;52.006;4.374;2023-08-06T12:53:15;3.50;;;1.10;;
17177;SDS011;8704;52.006;4.374;2023-08-06T12:55:43;3.38;;;0.82;;
17177;SDS011;8704;52.006;4.374;2023-08-06T12:58:11;3.63;;;0.75;;
17177;SDS011;8704;52.006;4.374;2023-08-06T13:00:41;1.88;;;0.70;;
17177;SDS011;8704;52.006;4.374;2023-08-06T13:03:09;2.83;;;0.90;;
17177;SDS011;8704;52.006;4.374;2023-08-06T13:05:37;1.40;;;0.60;;
17177;SDS011;8704;52.006;4.374;2023-08-06T13:08:06;1.63;;;0.68;;
17177;SDS011;8704;52.006;4.374;2023-08-06T13:10:34;3.92;;;0.70;;
17177;SDS011;8704;52.006;4.374;2023-08-06T13:13:03;4.50;;;0.98;;
17177;SDS011;8704;52.006;4.374;2023-08-06T13:15:31;5.85;;;1.20;;
17177;SDS011;8704;52.006;4.374;2023-08-06T13:18:00;4.70;;;1.20;;
17177;SDS011;8704;52.006;4.374;2023-08-06T13:20:30;8.45;;;2.33;;
17177;SDS011;8704;52.006;4.374;2023-08-06T13:22:58;9.70;;;2.25;;
17177;SDS011;8704;52.006;4.374;2023-08-06T13:25:27;9.27;;;2.17;;
17177;SDS011;8704;52.006;4.374;2023-08-06T13:27:55;10.05;;;2.08;;
17177;SDS011;8704;52.006;4.374;2023-08-06T13:30:23;9.13;;;2.08;;
17177;SDS011;8704;52.006;4.374;2023-08-06T13:32:51;7.28;;;2.22;;
17177;SDS011;8704;52.006;4.374;2023-08-06T13:35:23;8.63;;;1.95;;
17177;SDS011;8704;52.006;4.374;2023-08-06T13:37:51;10.20;;;2.00;;
17177;SDS011;8704;52.006;4.374;2023-08-06T13:40:20;9.15;;;2.20;;
17177;SDS011;8704;52.006;4.374;2023-08-06T13:42:49;13.40;;;2.17;;
17177;SDS011;8704;52.006;4.374;2023-08-06T13:45:18;6.22;;;2.10;;
17177;SDS011;8704;52.006;4.374;2023-08-06T13:47:46;8.85;;;1.92;;
17177;SDS011;8704;52.006;4.374;2023-08-06T13:50:14;10.00;;;1.92;;
17177;SDS011;8704;52.006;4.374;2023-08-06T13:52:44;8.13;;;1.65;;
17177;SDS011;8704;52.006;4.374;2023-08-06T13:55:12;6.60;;;1.55;;
17177;SDS011;8704;52.006;4.374;2023-08-06T13:57:40;9.07;;;1.80;;
17177;SDS011;8704;52.006;4.374;2023-08-06T14:00:08;6.80;;;1.63;;
17177;SDS011;8704;52.006;4.374;2023-08-06T14:02:37;6.03;;;1.38;;
17177;SDS011;8704;52.006;4.374;2023-08-06T14:05:06;5.70;;;1.35;;
17177;SDS011;8704;52.006;4.374;2023-08-06T14:07:35;6.88;;;1.88;;
17177;SDS011;8704;52.006;4.374;2023-08-06T14:10:05;9.88;;;2.05;;
17177;SDS011;8704;52.006;4.374;2023-08-06T14:12:35;6.63;;;1.77;;
17177;SDS011;8704;52.006;4.374;2023-08-06T14:15:03;7.45;;;1.90;;
17177;SDS011;8704;52.006;4.374;2023-08-06T14:17:32;5.28;;;1.40;;
17177;SDS011;8704;52.006;4.374;2023-08-06T14:20:00;8.48;;;1.75;;
17177;SDS011;8704;52.006;4.374;2023-08-06T14:22:30;7.72;;;1.67;;
17177;SDS011;8704;52.006;4.374;2023-08-06T14:24:59;9.00;;;1.63;;
17177;SDS011;8704;52.006;4.374;2023-08-06T14:27:28;7.20;;;1.73;;
17177;SDS011;8704;52.006;4.374;2023-08-06T14:29:56;6.75;;;1.55;;
17177;SDS011;8704;52.006;4.374;2023-08-06T14:32:24;4.45;;;1.48;;
17177;SDS011;8704;52.006;4.374;2023-08-06T14:34:53;9.68;;;1.75;;
17177;SDS011;8704;52.006;4.374;2023-08-06T14:37:21;7.25;;;1.85;;
17177;SDS011;8704;52.006;4.374;2023-08-06T14:39:49;7.75;;;2.28;;
17177;SDS011;8704;52.006;4.374;2023-08-06T14:42:17;8.20;;;2.22;;
17177;SDS011;8704;52.006;4.374;2023-08-06T14:44:47;13.85;;;2.58;;
17177;SDS011;8704;52.006;4.374;2023-08-06T14:47:15;7.20;;;2.17;;
17177;SDS011;8704;52.006;4.374;2023-08-06T14:49:43;14.18;;;2.78;;
17177;SDS011;8704;52.006;4.374;2023-08-06T14:52:11;9.40;;;2.10;;
17177;SDS011;8704;52.006;4.374;2023-08-06T14:54:39;9.15;;;2.08;;
17177;SDS011;8704;52.006;4.374;2023-08-06T14:57:08;7.05;;;1.27;;
17177;SDS011;8704;52.006;4.374;2023-08-06T14:59:36;8.50;;;2.10;;
17177;SDS011;8704;52.006;4.374;2023-08-06T15:02:07;9.70;;;1.90;;
17177;SDS011;8704;52.006;4.374;2023-08-06T15:04:35;10.35;;;2.20;;
17177;SDS011;8704;52.006;4.374;2023-08-06T15:07:03;10.32;;;2.28;;